sensor_id;sensor_type;location;lat;lon;timestamp;P1;durP1;ratioP1;P2;durP2;ratioP2
3349;SDS011;1688;51.000;13.684;2022-09-01T00:01:21;1.50;;;1.40;;
3349;SDS011;1688;51.000;13.684;2022-09-01T00:03:51;1.17;;;1.03;;
3349;SDS011;1688;51.000;13.684;2022-09-01T00:06:20;1.60;;;1.20;;
3349;SDS011;1688;51.000;13.684;2022-09-01T00:08:49;4.93;;;1.83;;
3349;SDS011;1688;51.000;13.684;2022-09-01T00:11:15;2.10;;;1.90;;
3349;SDS011;1688;51.000;13.684;2022-09-01T00:13:41;1.97;;;1.87;;
3349;SDS011;1688;51.000;13.684;2022-09-01T00:16:08;2.07;;;1.50;;
3349;SDS011;1688;51.000;13.684;2022-09-01T00:18:34;1.27;;;1.17;;
3349;SDS011;1688;51.000;13.684;2022-09-01T00:21:00;2.07;;;1.87;;
3349;SDS011;1688;51.000;13.684;2022-09-01T00:23:26;2.47;;;1.30;;
3349;SDS011;1688;51.000;13.684;2022-09-01T00:25:54;1.57;;;1.47;;
3349;SDS011;1688;51.000;13.684;2022-09-01T00:28:20;3.40;;;1.57;;
3349;SDS011;1688;51.000;13.684;2022-09-01T00:30:45;1.50;;;1.37;;
3349;SDS011;1688;51.000;13.684;2022-09-01T00:33:11;1.57;;;1.47;;
3349;SDS011;1688;51.000;13.684;2022-09-01T00:35:37;2.83;;;1.43;;
3349;SDS011;1688;51.000;13.684;2022-09-01T00:38:03;3.10;;;2.30;;
3349;SDS011;1688;51.000;13.684;2022-09-01T00:40:29;8.80;;;2.77;;
3349;SDS011;1688;51.000;13.684;2022-09-01T00:42:56;2.40;;;1.67;;
3349;SDS011;1688;51.000;13.684;2022-09-01T00:45:22;3.67;;;2.13;;
3349;SDS011;1688;51.000;13.684;2022-09-01T00:47:48;2.53;;;1.40;;
3349;SDS011;1688;51.000;13.684;2022-09-01T00:50:14;2.17;;;1.87;;
3349;SDS011;1688;51.000;13.684;2022-09-01T00:52:44;3.80;;;2.30;;
3349;SDS011;1688;51.000;13.684;2022-09-01T00:55:15;3.67;;;3.30;;
3349;SDS011;1688;51.000;13.684;2022-09-01T00:57:45;7.53;;;2.63;;
3349;SDS011;1688;51.000;13.684;2022-09-01T01:00:17;2.97;;;2.27;;
3349;SDS011;1688;51.000;13.684;2022-09-01T01:02:46;4.00;;;3.50;;
3349;SDS011;1688;51.000;13.684;2022-09-01T01:05:24;2.13;;;2.03;;
3349;SDS011;1688;51.000;13.684;2022-09-01T01:07:55;2.37;;;1.67;;
3349;SDS011;1688;51.000;13.684;2022-09-01T01:10:21;8.73;;;1.70;;
3349;SDS011;1688;51.000;13.684;2022-09-01T01:12:50;11.07;;;3.70;;
3349;SDS011;1688;51.000;13.684;2022-09-01T01:15:17;2.40;;;2.00;;
3349;SDS011;1688;51.000;13.684;2022-09-01T01:17:43;5.03;;;2.57;;
3349;SDS011;1688;51.000;13.684;2022-09-01T01:20:10;3.40;;;2.30;;
3349;SDS011;1688;51.000;13.684;2022-09-01T01:23:12;2.60;;;1.80;;
3349;SDS011;1688;51.000;13.684;2022-09-01T01:25:47;2.07;;;1.90;;
3349;SDS011;1688;51.000;13.684;2022-09-01T01:28:19;4.73;;;1.80;;
3349;SDS011;1688;51.000;13.684;2022-09-01T01:30:55;3.10;;;2.50;;
3349;SDS011;1688;51.000;13.684;2022-09-01T01:33:30;2.50;;;1.70;;
3349;SDS011;1688;51.000;13.684;2022-09-01T01:36:04;2.43;;;1.70;;
3349;SDS011;1688;51.000;13.684;2022-09-01T01:38:32;1.77;;;1.63;;
3349;SDS011;1688;51.000;13.684;2022-09-01T01:41:00;2.07;;;1.90;;
3349;SDS011;1688;51.000;13.684;2022-09-01T01:43:27;3.23;;;2.53;;
3349;SDS011;1688;51.000;13.684;2022-09-01T01:45:54;2.57;;;2.37;;
3349;SDS011;1688;51.000;13.684;2022-09-01T01:48:23;2.10;;;1.43;;
3349;SDS011;1688;51.000;13.684;2022-09-01T01:50:50;5.30;;;2.30;;
3349;SDS011;1688;51.000;13.684;2022-09-01T01:53:18;2.00;;;1.80;;
3349;SDS011;1688;51.000;13.684;2022-09-01T01:55:45;2.23;;;1.50;;
3349;SDS011;1688;51.000;13.684;2022-09-01T01:58:16;4.60;;;2.67;;
3349;SDS011;1688;51.000;13.684;2022-09-01T02:00:44;7.60;;;2.47;;
3349;SDS011;1688;51.000;13.684;2022-09-01T02:03:12;2.40;;;1.77;;
3349;SDS011;1688;51.000;13.684;2022-09-01T02:05:43;2.87;;;2.57;;
3349;SDS011;1688;51.000;13.684;2022-09-01T02:08:11;2.20;;;2.00;;
3349;SDS011;1688;51.000;13.684;2022-09-01T02:10:40;2.20;;;2.00;;
3349;SDS011;1688;51.000;13.684;2022-09-01T02:13:09;7.50;;;2.00;;
3349;SDS011;1688;51.000;13.684;2022-09-01T02:15:41;2.93;;;2.50;;
3349;SDS011;1688;51.000;13.684;2022-09-01T02:18:16;3.97;;;2.30;;
3349;SDS011;1688;51.000;13.684;2022-09-01T02:20:47;10.27;;;2.53;;
3349;SDS011;1688;51.000;13.684;2022-09-01T02:23:15;3.23;;;1.77;;
3349;SDS011;1688;51.000;13.684;2022-09-01T02:25:48;2.40;;;2.00;;
3349;SDS011;1688;51.000;13.684;2022-09-01T02:28:20;4.00;;;2.40;;
3349;SDS011;1688;51.000;13.684;2022-09-01T02:30:48;2.60;;;1.47;;
3349;SDS011;1688;51.000;13.684;2022-09-01T02:33:22;4.03;;;2.30;;
3349;SDS011;1688;51.000;13.684;2022-09-01T02:35:56;1.67;;;1.40;;
3349;SDS011;1688;51.000;13.684;2022-09-01T02:38:26;5.23;;;2.33;;
3349;SDS011;1688;51.000;13.684;2022-09-01T02:40:54;2.13;;;1.63;;
3349;SDS011;1688;51.000;13.684;2022-09-01T02:43:22;1.80;;;1.67;;
3349;SDS011;1688;51.000;13.684;2022-09-01T02:45:53;2.87;;;2.20;;
3349;SDS011;1688;51.000;13.684;2022-09-01T02:48:27;2.60;;;2.03;;
3349;SDS011;1688;51.000;13.684;2022-09-01T02:51:00;2.13;;;1.93;;
3349;SDS011;1688;51.000;13.684;2022-09-01T02:53:28;1.53;;;1.43;;
3349;SDS011;1688;51.000;13.684;2022-09-01T02:55:55;2.27;;;2.07;;
3349;SDS011;1688;51.000;13.684;2022-09-01T02:58:27;6.20;;;2.53;;
3349;SDS011;1688;51.000;13.684;2022-09-01T03:00:59;5.23;;;2.40;;
3349;SDS011;1688;51.000;13.684;2022-09-01T03:03:25;6.00;;;4.53;;
3349;SDS011;1688;51.000;13.684;2022-09-01T03:05:52;2.13;;;1.80;;
3349;SDS011;1688;51.000;13.684;2022-09-01T03:08:24;6.03;;;2.90;;
3349;SDS011;1688;51.000;13.684;2022-09-01T03:10:51;2.57;;;2.37;;
3349;SDS011;1688;51.000;13.684;2022-09-01T03:13:21;3.13;;;1.93;;
3349;SDS011;1688;51.000;13.684;2022-09-01T03:15:48;3.00;;;2.80;;
3349;SDS011;1688;51.000;13.684;2022-09-01T03:18:14;1.33;;;1.23;;
3349;SDS011;1688;51.000;13.684;2022-09-01T03:20:43;2.07;;;1.87;;
3349;SDS011;1688;51.000;13.684;2022-09-01T03:23:11;2.83;;;1.60;;
3349;SDS011;1688;51.000;13.684;2022-09-01T03:25:42;2.97;;;2.67;;
3349;SDS011;1688;51.000;13.684;2022-09-01T03:28:10;5.73;;;3.00;;
3349;SDS011;1688;51.000;13.684;2022-09-01T03:30:37;5.33;;;3.23;;
3349;SDS011;1688;51.000;13.684;2022-09-01T03:33:08;2.57;;;2.20;;
3349;SDS011;1688;51.000;13.684;2022-09-01T03:35:35;4.67;;;2.30;;
3349;SDS011;1688;51.000;13.684;2022-09-01T03:38:01;5.43;;;3.67;;
3349;SDS011;1688;51.000;13.684;2022-09-01T03:40:31;7.00;;;2.90;;
3349;SDS011;1688;51.000;13.684;2022-09-01T03:43:01;3.57;;;2.37;;
3349;SDS011;1688;51.000;13.684;2022-09-01T03:45:29;2.83;;;1.77;;
3349;SDS011;1688;51.000;13.684;2022-09-01T03:47:59;3.50;;;2.17;;
3349;SDS011;1688;51.000;13.684;2022-09-01T03:50:25;1.57;;;1.30;;
3349;SDS011;1688;51.000;13.684;2022-09-01T03:52:53;7.57;;;2.37;;
3349;SDS011;1688;51.000;13.684;2022-09-01T03:55:24;4.77;;;3.20;;
3349;SDS011;1688;51.000;13.684;2022-09-01T03:57:53;3.53;;;2.60;;
3349;SDS011;1688;51.000;13.684;2022-09-01T04:00:22;2.40;;;2.20;;
3349;SDS011;1688;51.000;13.684;2022-09-01T04:02:50;3.50;;;2.20;;
3349;SDS011;1688;51.000;13.684;2022-09-01T04:05:21;2.50;;;2.30;;
3349;SDS011;1688;51.000;13.684;2022-09-01T04:07:49;10.70;;;2.30;;
3349;SDS011;1688;51.000;13.684;2022-09-01T04:10:16;2.77;;;1.40;;
3349;SDS011;1688;51.000;13.684;2022-09-01T04:12:43;2.00;;;1.80;;
3349;SDS011;1688;51.000;13.684;2022-09-01T04:15:10;2.50;;;2.10;;
3349;SDS011;1688;51.000;13.684;2022-09-01T04:17:38;2.60;;;2.40;;
3349;SDS011;1688;51.000;13.684;2022-09-01T04:20:23;2.37;;;2.17;;
3349;SDS011;1688;51.000;13.684;2022-09-01T04:22:49;5.70;;;1.63;;
3349;SDS011;1688;51.000;13.684;2022-09-01T04:25:17;4.83;;;2.90;;
3349;SDS011;1688;51.000;13.684;2022-09-01T04:27:48;2.70;;;2.50;;
3349;SDS011;1688;51.000;13.684;2022-09-01T04:30:21;5.10;;;2.60;;
3349;SDS011;1688;51.000;13.684;2022-09-01T04:32:51;3.50;;;1.77;;
3349;SDS011;1688;51.000;13.684;2022-09-01T04:35:20;2.30;;;2.10;;
3349;SDS011;1688;51.000;13.684;2022-09-01T04:37:57;1.83;;;1.43;;
3349;SDS011;1688;51.000;13.684;2022-09-01T04:40:24;3.00;;;2.73;;
3349;SDS011;1688;51.000;13.684;2022-09-01T04:42:51;5.80;;;3.07;;
3349;SDS011;1688;51.000;13.684;2022-09-01T04:45:17;1.70;;;1.60;;
3349;SDS011;1688;51.000;13.684;2022-09-01T04:47:47;3.37;;;2.57;;
3349;SDS011;1688;51.000;13.684;2022-09-01T04:50:13;3.93;;;2.50;;
3349;SDS011;1688;51.000;13.684;2022-09-01T04:52:41;3.10;;;2.50;;
3349;SDS011;1688;51.000;13.684;2022-09-01T04:55:09;2.00;;;1.80;;
3349;SDS011;1688;51.000;13.684;2022-09-01T04:57:45;1.87;;;1.77;;
3349;SDS011;1688;51.000;13.684;2022-09-01T05:00:14;3.07;;;2.07;;
3349;SDS011;1688;51.000;13.684;2022-09-01T05:02:47;3.37;;;1.73;;
3349;SDS011;1688;51.000;13.684;2022-09-01T05:05:18;3.13;;;1.93;;
3349;SDS011;1688;51.000;13.684;2022-09-01T05:07:45;2.07;;;1.87;;
3349;SDS011;1688;51.000;13.684;2022-09-01T05:10:15;2.77;;;2.40;;
3349;SDS011;1688;51.000;13.684;2022-09-01T05:12:42;2.50;;;2.30;;
3349;SDS011;1688;51.000;13.684;2022-09-01T05:15:10;1.87;;;1.70;;
3349;SDS011;1688;51.000;13.684;2022-09-01T05:17:38;2.80;;;1.50;;
3349;SDS011;1688;51.000;13.684;2022-09-01T05:20:05;8.50;;;3.50;;
3349;SDS011;1688;51.000;13.684;2022-09-01T05:22:32;2.73;;;2.27;;
3349;SDS011;1688;51.000;13.684;2022-09-01T05:25:00;2.43;;;2.23;;
3349;SDS011;1688;51.000;13.684;2022-09-01T05:27:41;4.70;;;2.43;;
3349;SDS011;1688;51.000;13.684;2022-09-01T05:30:14;3.00;;;2.20;;
3349;SDS011;1688;51.000;13.684;2022-09-01T05:32:42;2.30;;;2.03;;
3349;SDS011;1688;51.000;13.684;2022-09-01T05:35:09;3.37;;;2.20;;
3349;SDS011;1688;51.000;13.684;2022-09-01T05:37:37;2.70;;;2.50;;
3349;SDS011;1688;51.000;13.684;2022-09-01T05:40:07;3.57;;;2.23;;
3349;SDS011;1688;51.000;13.684;2022-09-01T05:42:43;3.00;;;2.23;;
3349;SDS011;1688;51.000;13.684;2022-09-01T05:45:09;2.10;;;1.90;;
3349;SDS011;1688;51.000;13.684;2022-09-01T05:47:39;3.73;;;2.70;;
3349;SDS011;1688;51.000;13.684;2022-09-01T05:50:08;4.63;;;3.43;;
3349;SDS011;1688;51.000;13.684;2022-09-01T05:52:36;2.40;;;1.90;;
3349;SDS011;1688;51.000;13.684;2022-09-01T05:55:03;2.60;;;2.40;;
3349;SDS011;1688;51.000;13.684;2022-09-01T05:57:33;3.23;;;2.83;;
3349;SDS011;1688;51.000;13.684;2022-09-01T06:00:04;2.60;;;2.40;;
3349;SDS011;1688;51.000;13.684;2022-09-01T06:02:36;3.33;;;2.73;;
3349;SDS011;1688;51.000;13.684;2022-09-01T06:05:06;4.23;;;2.70;;
3349;SDS011;1688;51.000;13.684;2022-09-01T06:07:33;2.43;;;2.33;;
3349;SDS011;1688;51.000;13.684;2022-09-01T06:10:02;3.87;;;3.10;;
3349;SDS011;1688;51.000;13.684;2022-09-01T06:12:28;4.17;;;3.50;;
3349;SDS011;1688;51.000;13.684;2022-09-01T06:14:54;3.33;;;2.80;;
3349;SDS011;1688;51.000;13.684;2022-09-01T06:17:21;6.57;;;3.40;;
3349;SDS011;1688;51.000;13.684;2022-09-01T06:19:52;6.07;;;4.23;;
3349;SDS011;1688;51.000;13.684;2022-09-01T06:22:22;3.77;;;2.93;;
3349;SDS011;1688;51.000;13.684;2022-09-01T06:24:50;2.47;;;2.27;;
3349;SDS011;1688;51.000;13.684;2022-09-01T06:27:19;5.73;;;2.73;;
3349;SDS011;1688;51.000;13.684;2022-09-01T06:29:45;5.77;;;2.33;;
3349;SDS011;1688;51.000;13.684;2022-09-01T06:32:15;3.30;;;2.70;;
3349;SDS011;1688;51.000;13.684;2022-09-01T06:34:42;6.10;;;4.20;;
3349;SDS011;1688;51.000;13.684;2022-09-01T06:37:14;3.03;;;2.73;;
3349;SDS011;1688;51.000;13.684;2022-09-01T06:39:40;3.73;;;3.20;;
3349;SDS011;1688;51.000;13.684;2022-09-01T06:42:07;3.20;;;2.80;;
3349;SDS011;1688;51.000;13.684;2022-09-01T06:44:35;3.83;;;2.30;;
3349;SDS011;1688;51.000;13.684;2022-09-01T06:47:01;10.73;;;2.80;;
3349;SDS011;1688;51.000;13.684;2022-09-01T06:49:26;2.33;;;1.90;;
3349;SDS011;1688;51.000;13.684;2022-09-01T06:51:59;2.00;;;1.90;;
3349;SDS011;1688;51.000;13.684;2022-09-01T06:54:27;8.03;;;3.80;;
3349;SDS011;1688;51.000;13.684;2022-09-01T06:56:55;3.03;;;2.80;;
3349;SDS011;1688;51.000;13.684;2022-09-01T06:59:21;6.10;;;3.33;;
3349;SDS011;1688;51.000;13.684;2022-09-01T07:01:48;3.27;;;2.97;;
3349;SDS011;1688;51.000;13.684;2022-09-01T07:04:15;3.33;;;2.40;;
3349;SDS011;1688;51.000;13.684;2022-09-01T07:06:44;2.73;;;2.40;;
3349;SDS011;1688;51.000;13.684;2022-09-01T07:09:09;4.50;;;2.80;;
3349;SDS011;1688;51.000;13.684;2022-09-01T07:11:36;3.70;;;3.40;;
3349;SDS011;1688;51.000;13.684;2022-09-01T07:14:03;3.10;;;2.83;;
3349;SDS011;1688;51.000;13.684;2022-09-01T07:16:33;6.10;;;2.20;;
3349;SDS011;1688;51.000;13.684;2022-09-01T07:19:04;4.30;;;2.40;;
3349;SDS011;1688;51.000;13.684;2022-09-01T07:21:33;7.00;;;3.00;;
3349;SDS011;1688;51.000;13.684;2022-09-01T07:23:58;2.90;;;2.53;;
3349;SDS011;1688;51.000;13.684;2022-09-01T07:26:26;5.63;;;3.37;;
3349;SDS011;1688;51.000;13.684;2022-09-01T07:28:53;4.40;;;2.17;;
3349;SDS011;1688;51.000;13.684;2022-09-01T07:31:20;2.87;;;2.67;;
3349;SDS011;1688;51.000;13.684;2022-09-01T07:33:55;3.20;;;2.50;;
3349;SDS011;1688;51.000;13.684;2022-09-01T07:36:24;4.13;;;2.97;;
3349;SDS011;1688;51.000;13.684;2022-09-01T07:38:50;3.90;;;2.23;;
3349;SDS011;1688;51.000;13.684;2022-09-01T07:41:19;5.17;;;3.80;;
3349;SDS011;1688;51.000;13.684;2022-09-01T07:43:47;6.83;;;3.03;;
3349;SDS011;1688;51.000;13.684;2022-09-01T07:46:17;6.23;;;2.30;;
3349;SDS011;1688;51.000;13.684;2022-09-01T07:48:44;3.63;;;2.83;;
3349;SDS011;1688;51.000;13.684;2022-09-01T07:51:12;4.53;;;3.03;;
3349;SDS011;1688;51.000;13.684;2022-09-01T07:53:43;6.20;;;2.80;;
3349;SDS011;1688;51.000;13.684;2022-09-01T07:56:11;3.33;;;2.90;;
3349;SDS011;1688;51.000;13.684;2022-09-01T07:58:39;17.13;;;3.70;;
3349;SDS011;1688;51.000;13.684;2022-09-01T08:01:09;3.50;;;3.20;;
3349;SDS011;1688;51.000;13.684;2022-09-01T08:03:37;4.40;;;2.80;;
3349;SDS011;1688;51.000;13.684;2022-09-01T08:06:05;3.37;;;2.70;;
3349;SDS011;1688;51.000;13.684;2022-09-01T08:08:33;5.60;;;2.63;;
3349;SDS011;1688;51.000;13.684;2022-09-01T08:11:00;4.30;;;2.90;;
3349;SDS011;1688;51.000;13.684;2022-09-01T08:13:26;3.23;;;2.63;;
3349;SDS011;1688;51.000;13.684;2022-09-01T08:15:52;3.33;;;2.33;;
3349;SDS011;1688;51.000;13.684;2022-09-01T08:18:18;6.40;;;3.37;;
3349;SDS011;1688;51.000;13.684;2022-09-01T08:20:45;2.70;;;1.77;;
3349;SDS011;1688;51.000;13.684;2022-09-01T08:23:15;4.07;;;2.93;;
3349;SDS011;1688;51.000;13.684;2022-09-01T08:25:44;4.03;;;2.60;;
3349;SDS011;1688;51.000;13.684;2022-09-01T08:28:11;3.47;;;2.77;;
3349;SDS011;1688;51.000;13.684;2022-09-01T08:30:39;6.07;;;2.87;;
3349;SDS011;1688;51.000;13.684;2022-09-01T08:33:07;8.13;;;2.70;;
3349;SDS011;1688;51.000;13.684;2022-09-01T08:35:37;3.17;;;2.13;;
3349;SDS011;1688;51.000;13.684;2022-09-01T08:38:04;2.13;;;1.73;;
3349;SDS011;1688;51.000;13.684;2022-09-01T08:40:29;6.40;;;2.50;;
3349;SDS011;1688;51.000;13.684;2022-09-01T08:48:15;2.13;;;1.90;;
3349;SDS011;1688;51.000;13.684;2022-09-01T08:50:48;2.70;;;2.37;;
3349;SDS011;1688;51.000;13.684;2022-09-01T08:53:46;2.07;;;1.60;;
3349;SDS011;1688;51.000;13.684;2022-09-01T08:56:24;2.50;;;2.30;;
3349;SDS011;1688;51.000;13.684;2022-09-01T08:58:51;4.93;;;2.63;;
3349;SDS011;1688;51.000;13.684;2022-09-01T09:01:30;1.80;;;1.70;;
3349;SDS011;1688;51.000;13.684;2022-09-01T09:04:21;5.83;;;2.97;;
3349;SDS011;1688;51.000;13.684;2022-09-01T09:07:04;2.60;;;2.20;;
3349;SDS011;1688;51.000;13.684;2022-09-01T09:09:44;3.10;;;2.70;;
3349;SDS011;1688;51.000;13.684;2022-09-01T09:12:28;7.10;;;2.10;;
3349;SDS011;1688;51.000;13.684;2022-09-01T09:15:16;6.33;;;3.00;;
3349;SDS011;1688;51.000;13.684;2022-09-01T09:17:52;1.80;;;1.70;;
3349;SDS011;1688;51.000;13.684;2022-09-01T09:20:26;2.03;;;1.27;;
3349;SDS011;1688;51.000;13.684;2022-09-01T09:22:52;2.70;;;2.00;;
3349;SDS011;1688;51.000;13.684;2022-09-01T09:25:19;9.10;;;2.90;;
3349;SDS011;1688;51.000;13.684;2022-09-01T09:27:46;8.40;;;2.73;;
3349;SDS011;1688;51.000;13.684;2022-09-01T09:30:20;2.73;;;2.50;;
3349;SDS011;1688;51.000;13.684;2022-09-01T09:32:54;11.87;;;2.63;;
3349;SDS011;1688;51.000;13.684;2022-09-01T09:35:35;2.20;;;2.00;;
3349;SDS011;1688;51.000;13.684;2022-09-01T09:41:05;4.50;;;3.17;;
3349;SDS011;1688;51.000;13.684;2022-09-01T09:43:55;3.70;;;3.40;;
3349;SDS011;1688;51.000;13.684;2022-09-01T09:51:34;3.83;;;2.50;;
3349;SDS011;1688;51.000;13.684;2022-09-01T09:56:42;4.50;;;2.83;;
3349;SDS011;1688;51.000;13.684;2022-09-01T09:59:15;9.30;;;2.43;;
3349;SDS011;1688;51.000;13.684;2022-09-01T10:01:44;3.10;;;2.67;;
3349;SDS011;1688;51.000;13.684;2022-09-01T10:04:29;1.63;;;1.53;;
3349;SDS011;1688;51.000;13.684;2022-09-01T10:07:00;11.50;;;3.97;;
3349;SDS011;1688;51.000;13.684;2022-09-01T10:09:45;4.70;;;3.10;;
3349;SDS011;1688;51.000;13.684;2022-09-01T10:12:13;2.80;;;2.40;;
3349;SDS011;1688;51.000;13.684;2022-09-01T10:14:40;4.70;;;2.87;;
3349;SDS011;1688;51.000;13.684;2022-09-01T10:17:13;2.80;;;2.10;;
3349;SDS011;1688;51.000;13.684;2022-09-01T10:19:50;3.17;;;2.87;;
3349;SDS011;1688;51.000;13.684;2022-09-01T10:22:20;4.37;;;1.87;;
3349;SDS011;1688;51.000;13.684;2022-09-01T10:24:47;6.93;;;2.90;;
3349;SDS011;1688;51.000;13.684;2022-09-01T10:27:22;3.13;;;2.03;;
3349;SDS011;1688;51.000;13.684;2022-09-01T10:29:55;7.53;;;2.70;;
3349;SDS011;1688;51.000;13.684;2022-09-01T10:32:38;3.00;;;2.27;;
3349;SDS011;1688;51.000;13.684;2022-09-01T10:35:07;2.50;;;1.93;;
3349;SDS011;1688;51.000;13.684;2022-09-01T10:37:40;4.57;;;1.90;;
3349;SDS011;1688;51.000;13.684;2022-09-01T10:42:53;2.93;;;2.63;;
3349;SDS011;1688;51.000;13.684;2022-09-01T10:50:49;1.70;;;1.53;;
3349;SDS011;1688;51.000;13.684;2022-09-01T11:04:21;7.10;;;1.40;;
3349;SDS011;1688;51.000;13.684;2022-09-01T11:10:32;2.03;;;1.80;;
3349;SDS011;1688;51.000;13.684;2022-09-01T11:17:59;1.87;;;1.57;;
3349;SDS011;1688;51.000;13.684;2022-09-01T11:20:28;2.30;;;2.10;;
3349;SDS011;1688;51.000;13.684;2022-09-01T11:25:48;6.37;;;1.73;;
3349;SDS011;1688;51.000;13.684;2022-09-01T11:30:56;3.47;;;1.93;;
3349;SDS011;1688;51.000;13.684;2022-09-01T11:36:36;2.07;;;1.50;;
3349;SDS011;1688;51.000;13.684;2022-09-01T11:46:53;1.40;;;1.10;;
3349;SDS011;1688;51.000;13.684;2022-09-01T11:49:35;1.77;;;1.47;;
3349;SDS011;1688;51.000;13.684;2022-09-01T11:52:04;1.30;;;1.00;;
3349;SDS011;1688;51.000;13.684;2022-09-01T11:54:40;4.33;;;1.60;;
3349;SDS011;1688;51.000;13.684;2022-09-01T11:57:18;1.10;;;0.90;;
3349;SDS011;1688;51.000;13.684;2022-09-01T11:59:50;1.13;;;0.90;;
3349;SDS011;1688;51.000;13.684;2022-09-01T12:02:21;1.30;;;0.70;;
3349;SDS011;1688;51.000;13.684;2022-09-01T12:04:50;1.17;;;1.07;;
3349;SDS011;1688;51.000;13.684;2022-09-01T12:07:25;1.40;;;1.07;;
3349;SDS011;1688;51.000;13.684;2022-09-01T12:13:18;0.97;;;0.80;;
3349;SDS011;1688;51.000;13.684;2022-09-01T12:16:20;1.80;;;1.33;;
3349;SDS011;1688;51.000;13.684;2022-09-01T12:18:45;2.63;;;2.43;;
3349;SDS011;1688;51.000;13.684;2022-09-01T12:21:36;1.40;;;1.13;;
3349;SDS011;1688;51.000;13.684;2022-09-01T12:24:11;1.67;;;1.40;;
3349;SDS011;1688;51.000;13.684;2022-09-01T12:26:43;2.70;;;1.73;;
3349;SDS011;1688;51.000;13.684;2022-09-01T12:29:14;1.20;;;1.10;;
3349;SDS011;1688;51.000;13.684;2022-09-01T12:31:42;1.50;;;1.20;;
3349;SDS011;1688;51.000;13.684;2022-09-01T12:34:26;1.67;;;1.57;;
3349;SDS011;1688;51.000;13.684;2022-09-01T12:39:51;1.63;;;1.47;;
3349;SDS011;1688;51.000;13.684;2022-09-01T12:42:28;1.20;;;1.00;;
3349;SDS011;1688;51.000;13.684;2022-09-01T12:44:57;1.40;;;1.30;;
3349;SDS011;1688;51.000;13.684;2022-09-01T12:55:13;3.80;;;2.13;;
3349;SDS011;1688;51.000;13.684;2022-09-01T12:57:45;2.23;;;1.30;;
3349;SDS011;1688;51.000;13.684;2022-09-01T13:00:17;0.90;;;0.80;;
3349;SDS011;1688;51.000;13.684;2022-09-01T13:05:30;8.60;;;1.67;;
3349;SDS011;1688;51.000;13.684;2022-09-01T13:07:57;1.00;;;0.90;;
3349;SDS011;1688;51.000;13.684;2022-09-01T13:10:32;3.67;;;1.10;;
3349;SDS011;1688;51.000;13.684;2022-09-01T13:13:02;1.93;;;1.20;;
3349;SDS011;1688;51.000;13.684;2022-09-01T13:15:29;1.50;;;0.80;;
3349;SDS011;1688;51.000;13.684;2022-09-01T13:17:55;1.13;;;1.03;;
3349;SDS011;1688;51.000;13.684;2022-09-01T13:20:21;1.43;;;0.97;;
3349;SDS011;1688;51.000;13.684;2022-09-01T13:22:47;4.80;;;1.37;;
3349;SDS011;1688;51.000;13.684;2022-09-01T13:25:17;0.87;;;0.80;;
3349;SDS011;1688;51.000;13.684;2022-09-01T13:27:44;0.80;;;0.70;;
3349;SDS011;1688;51.000;13.684;2022-09-01T13:30:13;5.90;;;1.80;;
3349;SDS011;1688;51.000;13.684;2022-09-01T13:32:41;1.53;;;1.00;;
3349;SDS011;1688;51.000;13.684;2022-09-01T13:35:09;1.10;;;0.80;;
3349;SDS011;1688;51.000;13.684;2022-09-01T13:37:35;1.10;;;0.80;;
3349;SDS011;1688;51.000;13.684;2022-09-01T13:40:02;1.10;;;0.90;;
3349;SDS011;1688;51.000;13.684;2022-09-01T13:42:30;1.30;;;1.03;;
3349;SDS011;1688;51.000;13.684;2022-09-01T13:44:56;2.50;;;1.27;;
3349;SDS011;1688;51.000;13.684;2022-09-01T13:47:22;1.53;;;1.10;;
3349;SDS011;1688;51.000;13.684;2022-09-01T13:49:48;1.57;;;1.17;;
3349;SDS011;1688;51.000;13.684;2022-09-01T13:52:14;4.63;;;1.00;;
3349;SDS011;1688;51.000;13.684;2022-09-01T13:54:40;3.13;;;1.70;;
3349;SDS011;1688;51.000;13.684;2022-09-01T13:57:08;1.83;;;1.30;;
3349;SDS011;1688;51.000;13.684;2022-09-01T13:59:37;0.90;;;0.80;;
3349;SDS011;1688;51.000;13.684;2022-09-01T14:02:04;1.70;;;1.60;;
3349;SDS011;1688;51.000;13.684;2022-09-01T14:04:30;1.17;;;0.90;;
3349;SDS011;1688;51.000;13.684;2022-09-01T14:06:56;3.43;;;1.47;;
3349;SDS011;1688;51.000;13.684;2022-09-01T14:09:24;2.40;;;1.07;;
3349;SDS011;1688;51.000;13.684;2022-09-01T14:11:53;1.67;;;1.57;;
3349;SDS011;1688;51.000;13.684;2022-09-01T14:14:19;0.93;;;0.73;;
3349;SDS011;1688;51.000;13.684;2022-09-01T14:16:46;0.80;;;0.60;;
3349;SDS011;1688;51.000;13.684;2022-09-01T14:19:12;1.17;;;0.97;;
3349;SDS011;1688;51.000;13.684;2022-09-01T14:21:37;0.90;;;0.77;;
3349;SDS011;1688;51.000;13.684;2022-09-01T14:24:04;1.20;;;0.80;;
3349;SDS011;1688;51.000;13.684;2022-09-01T14:26:30;3.10;;;1.10;;
3349;SDS011;1688;51.000;13.684;2022-09-01T14:28:56;0.93;;;0.70;;
3349;SDS011;1688;51.000;13.684;2022-09-01T14:31:22;3.00;;;1.17;;
3349;SDS011;1688;51.000;13.684;2022-09-01T14:33:48;2.23;;;1.13;;
3349;SDS011;1688;51.000;13.684;2022-09-01T14:36:16;1.20;;;0.90;;
3349;SDS011;1688;51.000;13.684;2022-09-01T14:38:47;1.30;;;1.13;;
3349;SDS011;1688;51.000;13.684;2022-09-01T14:41:15;1.10;;;0.80;;
3349;SDS011;1688;51.000;13.684;2022-09-01T14:43:44;1.33;;;0.87;;
3349;SDS011;1688;51.000;13.684;2022-09-01T14:46:10;1.47;;;1.20;;
3349;SDS011;1688;51.000;13.684;2022-09-01T14:48:39;1.20;;;1.10;;
3349;SDS011;1688;51.000;13.684;2022-09-01T14:51:05;1.30;;;0.90;;
3349;SDS011;1688;51.000;13.684;2022-09-01T14:53:32;1.53;;;1.43;;
3349;SDS011;1688;51.000;13.684;2022-09-01T14:55:59;1.10;;;0.73;;
3349;SDS011;1688;51.000;13.684;2022-09-01T14:58:26;1.30;;;0.90;;
3349;SDS011;1688;51.000;13.684;2022-09-01T15:00:54;0.83;;;0.70;;
3349;SDS011;1688;51.000;13.684;2022-09-01T15:03:24;1.10;;;1.00;;
3349;SDS011;1688;51.000;13.684;2022-09-01T15:05:51;1.23;;;1.13;;
3349;SDS011;1688;51.000;13.684;2022-09-01T15:08:18;1.00;;;0.70;;
3349;SDS011;1688;51.000;13.684;2022-09-01T15:10:44;1.07;;;0.70;;
3349;SDS011;1688;51.000;13.684;2022-09-01T15:13:10;1.00;;;0.90;;
3349;SDS011;1688;51.000;13.684;2022-09-01T15:15:37;2.03;;;1.40;;
3349;SDS011;1688;51.000;13.684;2022-09-01T15:18:02;1.00;;;0.90;;
3349;SDS011;1688;51.000;13.684;2022-09-01T15:20:28;2.73;;;0.90;;
3349;SDS011;1688;51.000;13.684;2022-09-01T15:23:10;1.67;;;1.53;;
3349;SDS011;1688;51.000;13.684;2022-09-01T15:25:45;1.47;;;1.10;;
3349;SDS011;1688;51.000;13.684;2022-09-01T15:28:11;2.50;;;1.43;;
3349;SDS011;1688;51.000;13.684;2022-09-01T15:30:38;1.20;;;0.87;;
3349;SDS011;1688;51.000;13.684;2022-09-01T15:33:04;1.07;;;0.70;;
3349;SDS011;1688;51.000;13.684;2022-09-01T15:35:33;0.80;;;0.60;;
3349;SDS011;1688;51.000;13.684;2022-09-01T15:37:59;1.30;;;0.80;;
3349;SDS011;1688;51.000;13.684;2022-09-01T15:40:25;2.17;;;1.00;;
3349;SDS011;1688;51.000;13.684;2022-09-01T15:42:55;1.27;;;0.93;;
3349;SDS011;1688;51.000;13.684;2022-09-01T15:45:22;7.13;;;1.03;;
3349;SDS011;1688;51.000;13.684;2022-09-01T15:47:49;6.77;;;1.40;;
3349;SDS011;1688;51.000;13.684;2022-09-01T15:50:19;1.10;;;0.90;;
3349;SDS011;1688;51.000;13.684;2022-09-01T15:52:54;1.67;;;0.90;;
3349;SDS011;1688;51.000;13.684;2022-09-01T15:55:27;1.40;;;0.93;;
3349;SDS011;1688;51.000;13.684;2022-09-01T15:58:02;0.97;;;0.80;;
3349;SDS011;1688;51.000;13.684;2022-09-01T16:00:28;1.67;;;1.00;;
3349;SDS011;1688;51.000;13.684;2022-09-01T16:02:54;0.90;;;0.80;;
3349;SDS011;1688;51.000;13.684;2022-09-01T16:05:22;1.10;;;1.00;;
3349;SDS011;1688;51.000;13.684;2022-09-01T16:07:50;2.00;;;1.10;;
3349;SDS011;1688;51.000;13.684;2022-09-01T16:10:16;3.50;;;1.20;;
3349;SDS011;1688;51.000;13.684;2022-09-01T16:12:43;1.63;;;1.40;;
3349;SDS011;1688;51.000;13.684;2022-09-01T16:15:11;2.33;;;1.53;;
3349;SDS011;1688;51.000;13.684;2022-09-01T16:20:09;1.03;;;0.93;;
3349;SDS011;1688;51.000;13.684;2022-09-01T16:22:52;1.20;;;1.03;;
3349;SDS011;1688;51.000;13.684;2022-09-01T16:25:26;1.00;;;0.70;;
3349;SDS011;1688;51.000;13.684;2022-09-01T16:27:55;1.20;;;0.90;;
3349;SDS011;1688;51.000;13.684;2022-09-01T16:30:26;1.00;;;0.90;;
3349;SDS011;1688;51.000;13.684;2022-09-01T16:32:52;1.27;;;0.90;;
3349;SDS011;1688;51.000;13.684;2022-09-01T16:35:24;0.80;;;0.60;;